sensor_id;sensor_type;location;lat;lon;timestamp;P1;durP1;ratioP1;P2;durP2;ratioP2
7156;SDS011;3620;49.862;8.758;2022-12-18T00:02:03;2.50;;;2.40;;
7156;SDS011;3620;49.862;8.758;2022-12-18T00:04:29;2.80;;;2.70;;
7156;SDS011;3620;49.862;8.758;2022-12-18T00:06:56;2.53;;;2.43;;
7156;SDS011;3620;49.862;8.758;2022-12-18T00:09:23;2.50;;;2.40;;
7156;SDS011;3620;49.862;8.758;2022-12-18T00:11:50;2.60;;;2.50;;
7156;SDS011;3620;49.862;8.758;2022-12-18T00:14:18;2.87;;;2.77;;
7156;SDS011;3620;49.862;8.758;2022-12-18T00:16:45;2.50;;;2.40;;
7156;SDS011;3620;49.862;8.758;2022-12-18T00:19:13;3.20;;;3.10;;
7156;SDS011;3620;49.862;8.758;2022-12-18T00:21:40;2.43;;;2.33;;
7156;SDS011;3620;49.862;8.758;2022-12-18T00:24:08;2.37;;;2.27;;
7156;SDS011;3620;49.862;8.758;2022-12-18T00:26:36;2.30;;;2.20;;
7156;SDS011;3620;49.862;8.758;2022-12-18T00:29:05;2.60;;;2.50;;
7156;SDS011;3620;49.862;8.758;2022-12-18T00:31:35;3.10;;;3.00;;
7156;SDS011;3620;49.862;8.758;2022-12-18T00:34:03;2.50;;;2.40;;
7156;SDS011;3620;49.862;8.758;2022-12-18T00:36:30;2.40;;;2.30;;
7156;SDS011;3620;49.862;8.758;2022-12-18T00:38:59;2.30;;;2.20;;
7156;SDS011;3620;49.862;8.758;2022-12-18T00:41:27;2.40;;;2.30;;
7156;SDS011;3620;49.862;8.758;2022-12-18T00:44:12;2.77;;;2.67;;
7156;SDS011;3620;49.862;8.758;2022-12-18T00:46:42;2.53;;;2.43;;
7156;SDS011;3620;49.862;8.758;2022-12-18T00:49:10;2.57;;;2.47;;
7156;SDS011;3620;49.862;8.758;2022-12-18T00:51:39;2.50;;;2.40;;
7156;SDS011;3620;49.862;8.758;2022-12-18T00:54:06;2.57;;;2.47;;
7156;SDS011;3620;49.862;8.758;2022-12-18T00:56:34;2.30;;;2.20;;
7156;SDS011;3620;49.862;8.758;2022-12-18T00:59:01;2.50;;;2.40;;
7156;SDS011;3620;49.862;8.758;2022-12-18T01:01:28;2.50;;;2.40;;
7156;SDS011;3620;49.862;8.758;2022-12-18T01:03:56;2.67;;;2.57;;
7156;SDS011;3620;49.862;8.758;2022-12-18T01:06:22;2.30;;;2.20;;
7156;SDS011;3620;49.862;8.758;2022-12-18T01:08:49;2.10;;;2.00;;
7156;SDS011;3620;49.862;8.758;2022-12-18T01:11:17;2.40;;;2.30;;
7156;SDS011;3620;49.862;8.758;2022-12-18T01:13:44;3.10;;;3.00;;
7156;SDS011;3620;49.862;8.758;2022-12-18T01:16:11;2.30;;;2.20;;
7156;SDS011;3620;49.862;8.758;2022-12-18T01:18:39;2.50;;;2.40;;
7156;SDS011;3620;49.862;8.758;2022-12-18T01:21:08;2.53;;;2.43;;
7156;SDS011;3620;49.862;8.758;2022-12-18T01:23:35;2.50;;;2.40;;
7156;SDS011;3620;49.862;8.758;2022-12-18T01:26:05;2.70;;;2.60;;
7156;SDS011;3620;49.862;8.758;2022-12-18T01:28:33;2.37;;;2.27;;
7156;SDS011;3620;49.862;8.758;2022-12-18T01:31:09;2.87;;;2.77;;
7156;SDS011;3620;49.862;8.758;2022-12-18T01:33:40;3.10;;;3.00;;
7156;SDS011;3620;49.862;8.758;2022-12-18T01:36:11;2.67;;;2.57;;
7156;SDS011;3620;49.862;8.758;2022-12-18T01:38:41;2.57;;;2.47;;
7156;SDS011;3620;49.862;8.758;2022-12-18T01:41:08;2.70;;;2.60;;
7156;SDS011;3620;49.862;8.758;2022-12-18T01:46:24;2.87;;;2.77;;
7156;SDS011;3620;49.862;8.758;2022-12-18T01:48:51;3.00;;;2.90;;
7156;SDS011;3620;49.862;8.758;2022-12-18T01:51:21;2.57;;;2.47;;
7156;SDS011;3620;49.862;8.758;2022-12-18T01:53:48;3.33;;;3.23;;
7156;SDS011;3620;49.862;8.758;2022-12-18T01:56:16;2.63;;;2.53;;
7156;SDS011;3620;49.862;8.758;2022-12-18T01:58:46;3.20;;;3.10;;
7156;SDS011;3620;49.862;8.758;2022-12-18T02:01:19;2.77;;;2.67;;
7156;SDS011;3620;49.862;8.758;2022-12-18T02:03:47;2.60;;;2.50;;
7156;SDS011;3620;49.862;8.758;2022-12-18T02:06:15;2.60;;;2.50;;
7156;SDS011;3620;49.862;8.758;2022-12-18T02:08:49;2.50;;;2.40;;
7156;SDS011;3620;49.862;8.758;2022-12-18T02:11:24;2.63;;;2.53;;
7156;SDS011;3620;49.862;8.758;2022-12-18T02:14:01;2.80;;;2.70;;
7156;SDS011;3620;49.862;8.758;2022-12-18T02:16:39;2.63;;;2.53;;
7156;SDS011;3620;49.862;8.758;2022-12-18T02:19:15;2.90;;;2.80;;
7156;SDS011;3620;49.862;8.758;2022-12-18T02:21:54;2.60;;;2.50;;
7156;SDS011;3620;49.862;8.758;2022-12-18T02:24:33;2.50;;;2.40;;
7156;SDS011;3620;49.862;8.758;2022-12-18T02:27:06;2.40;;;2.30;;
7156;SDS011;3620;49.862;8.758;2022-12-18T02:29:36;2.73;;;2.63;;
7156;SDS011;3620;49.862;8.758;2022-12-18T02:32:06;2.40;;;2.30;;
7156;SDS011;3620;49.862;8.758;2022-12-18T02:34:37;2.60;;;2.50;;
7156;SDS011;3620;49.862;8.758;2022-12-18T02:37:05;2.87;;;2.77;;
7156;SDS011;3620;49.862;8.758;2022-12-18T02:39:35;2.90;;;2.80;;
7156;SDS011;3620;49.862;8.758;2022-12-18T02:42:05;2.67;;;2.57;;
7156;SDS011;3620;49.862;8.758;2022-12-18T02:44:33;2.60;;;2.50;;
7156;SDS011;3620;49.862;8.758;2022-12-18T02:47:00;2.93;;;2.83;;
7156;SDS011;3620;49.862;8.758;2022-12-18T02:49:29;2.60;;;2.50;;
7156;SDS011;3620;49.862;8.758;2022-12-18T02:52:05;3.00;;;2.90;;
7156;SDS011;3620;49.862;8.758;2022-12-18T02:54:42;2.60;;;2.50;;
7156;SDS011;3620;49.862;8.758;2022-12-18T02:57:19;2.70;;;2.60;;
7156;SDS011;3620;49.862;8.758;2022-12-18T02:59:54;2.73;;;2.63;;
7156;SDS011;3620;49.862;8.758;2022-12-18T03:02:25;2.40;;;2.30;;
7156;SDS011;3620;49.862;8.758;2022-12-18T03:04:58;2.73;;;2.63;;
7156;SDS011;3620;49.862;8.758;2022-12-18T03:07:33;2.60;;;2.50;;
7156;SDS011;3620;49.862;8.758;2022-12-18T03:10:03;2.70;;;2.60;;
7156;SDS011;3620;49.862;8.758;2022-12-18T03:12:37;2.70;;;2.60;;
7156;SDS011;3620;49.862;8.758;2022-12-18T03:15:08;2.80;;;2.70;;
7156;SDS011;3620;49.862;8.758;2022-12-18T03:17:39;3.10;;;3.00;;
7156;SDS011;3620;49.862;8.758;2022-12-18T03:20:12;2.23;;;2.13;;
7156;SDS011;3620;49.862;8.758;2022-12-18T03:22:43;2.43;;;2.33;;
7156;SDS011;3620;49.862;8.758;2022-12-18T03:25:15;2.57;;;2.47;;
7156;SDS011;3620;49.862;8.758;2022-12-18T03:27:51;2.80;;;2.70;;
7156;SDS011;3620;49.862;8.758;2022-12-18T03:30:22;2.80;;;2.70;;
7156;SDS011;3620;49.862;8.758;2022-12-18T03:32:52;2.77;;;2.67;;
7156;SDS011;3620;49.862;8.758;2022-12-18T03:35:39;2.50;;;2.40;;
7156;SDS011;3620;49.862;8.758;2022-12-18T03:38:08;2.70;;;2.60;;
7156;SDS011;3620;49.862;8.758;2022-12-18T03:40:39;2.83;;;2.73;;
7156;SDS011;3620;49.862;8.758;2022-12-18T03:43:18;2.70;;;2.60;;
7156;SDS011;3620;49.862;8.758;2022-12-18T03:45:54;2.83;;;2.73;;
7156;SDS011;3620;49.862;8.758;2022-12-18T03:48:28;2.80;;;2.70;;
7156;SDS011;3620;49.862;8.758;2022-12-18T03:50:58;2.90;;;2.80;;
7156;SDS011;3620;49.862;8.758;2022-12-18T03:53:30;2.67;;;2.57;;
7156;SDS011;3620;49.862;8.758;2022-12-18T03:56:02;2.57;;;2.47;;
7156;SDS011;3620;49.862;8.758;2022-12-18T03:58:32;2.40;;;2.30;;
7156;SDS011;3620;49.862;8.758;2022-12-18T04:01:02;3.13;;;3.03;;
7156;SDS011;3620;49.862;8.758;2022-12-18T04:03:34;2.63;;;2.53;;
7156;SDS011;3620;49.862;8.758;2022-12-18T04:06:02;2.50;;;2.40;;
7156;SDS011;3620;49.862;8.758;2022-12-18T04:08:30;2.67;;;2.57;;
7156;SDS011;3620;49.862;8.758;2022-12-18T04:10:59;3.33;;;3.23;;
7156;SDS011;3620;49.862;8.758;2022-12-18T04:13:27;2.60;;;2.50;;
7156;SDS011;3620;49.862;8.758;2022-12-18T04:15:56;2.70;;;2.60;;
7156;SDS011;3620;49.862;8.758;2022-12-18T04:18:22;3.00;;;2.90;;
7156;SDS011;3620;49.862;8.758;2022-12-18T04:20:49;2.53;;;2.43;;
7156;SDS011;3620;49.862;8.758;2022-12-18T04:23:15;2.70;;;2.60;;
7156;SDS011;3620;49.862;8.758;2022-12-18T04:25:42;2.80;;;2.70;;
7156;SDS011;3620;49.862;8.758;2022-12-18T04:28:08;2.70;;;2.60;;
7156;SDS011;3620;49.862;8.758;2022-12-18T04:30:35;2.50;;;2.40;;
7156;SDS011;3620;49.862;8.758;2022-12-18T04:33:03;3.00;;;2.90;;
7156;SDS011;3620;49.862;8.758;2022-12-18T04:35:29;2.50;;;2.40;;
7156;SDS011;3620;49.862;8.758;2022-12-18T04:37:56;2.53;;;2.43;;
7156;SDS011;3620;49.862;8.758;2022-12-18T04:40:22;2.73;;;2.63;;
7156;SDS011;3620;49.862;8.758;2022-12-18T04:42:49;2.33;;;2.23;;
7156;SDS011;3620;49.862;8.758;2022-12-18T04:45:15;2.50;;;2.40;;
7156;SDS011;3620;49.862;8.758;2022-12-18T04:47:42;2.97;;;2.87;;
7156;SDS011;3620;49.862;8.758;2022-12-18T04:50:10;2.60;;;2.50;;
7156;SDS011;3620;49.862;8.758;2022-12-18T04:52:36;3.00;;;2.90;;
7156;SDS011;3620;49.862;8.758;2022-12-18T04:55:03;2.60;;;2.50;;
7156;SDS011;3620;49.862;8.758;2022-12-18T04:57:30;2.70;;;2.60;;
7156;SDS011;3620;49.862;8.758;2022-12-18T04:59:57;2.43;;;2.33;;
7156;SDS011;3620;49.862;8.758;2022-12-18T05:02:23;2.63;;;2.53;;
7156;SDS011;3620;49.862;8.758;2022-12-18T05:04:50;3.07;;;2.97;;
7156;SDS011;3620;49.862;8.758;2022-12-18T05:07:18;2.63;;;2.53;;
7156;SDS011;3620;49.862;8.758;2022-12-18T05:09:44;3.07;;;2.97;;
7156;SDS011;3620;49.862;8.758;2022-12-18T05:12:11;2.60;;;2.50;;
7156;SDS011;3620;49.862;8.758;2022-12-18T05:14:38;2.83;;;2.73;;
7156;SDS011;3620;49.862;8.758;2022-12-18T05:17:04;2.67;;;2.57;;
7156;SDS011;3620;49.862;8.758;2022-12-18T05:19:30;2.70;;;2.60;;
7156;SDS011;3620;49.862;8.758;2022-12-18T05:21:57;3.20;;;3.10;;
7156;SDS011;3620;49.862;8.758;2022-12-18T05:24:25;2.30;;;2.20;;
7156;SDS011;3620;49.862;8.758;2022-12-18T05:26:52;3.30;;;3.20;;
7156;SDS011;3620;49.862;8.758;2022-12-18T05:29:18;2.43;;;2.33;;
7156;SDS011;3620;49.862;8.758;2022-12-18T05:31:45;2.60;;;2.50;;
7156;SDS011;3620;49.862;8.758;2022-12-18T05:34:11;2.97;;;2.87;;
7156;SDS011;3620;49.862;8.758;2022-12-18T05:36:38;3.53;;;3.33;;
7156;SDS011;3620;49.862;8.758;2022-12-18T05:39:04;3.03;;;2.93;;
7156;SDS011;3620;49.862;8.758;2022-12-18T05:41:33;2.80;;;2.70;;
7156;SDS011;3620;49.862;8.758;2022-12-18T05:43:59;2.70;;;2.60;;
7156;SDS011;3620;49.862;8.758;2022-12-18T05:46:26;2.50;;;2.40;;
7156;SDS011;3620;49.862;8.758;2022-12-18T05:48:53;2.73;;;2.63;;
7156;SDS011;3620;49.862;8.758;2022-12-18T05:51:20;2.47;;;2.37;;
7156;SDS011;3620;49.862;8.758;2022-12-18T05:53:48;2.20;;;2.10;;
7156;SDS011;3620;49.862;8.758;2022-12-18T05:56:15;2.53;;;2.43;;
7156;SDS011;3620;49.862;8.758;2022-12-18T05:58:44;3.40;;;3.27;;
7156;SDS011;3620;49.862;8.758;2022-12-18T06:01:12;2.63;;;2.53;;
7156;SDS011;3620;49.862;8.758;2022-12-18T06:03:40;2.50;;;2.40;;
7156;SDS011;3620;49.862;8.758;2022-12-18T06:06:12;2.50;;;2.40;;
7156;SDS011;3620;49.862;8.758;2022-12-18T06:08:40;2.47;;;2.37;;
7156;SDS011;3620;49.862;8.758;2022-12-18T06:11:07;2.00;;;1.90;;
7156;SDS011;3620;49.862;8.758;2022-12-18T06:13:33;2.50;;;2.40;;
7156;SDS011;3620;49.862;8.758;2022-12-18T06:16:02;2.50;;;2.40;;
7156;SDS011;3620;49.862;8.758;2022-12-18T06:18:29;2.50;;;2.40;;
7156;SDS011;3620;49.862;8.758;2022-12-18T06:20:56;3.20;;;3.10;;
7156;SDS011;3620;49.862;8.758;2022-12-18T06:23:23;2.80;;;2.70;;
7156;SDS011;3620;49.862;8.758;2022-12-18T06:25:50;3.10;;;3.00;;
7156;SDS011;3620;49.862;8.758;2022-12-18T06:28:17;2.43;;;2.33;;
7156;SDS011;3620;49.862;8.758;2022-12-18T06:30:44;2.67;;;2.57;;
7156;SDS011;3620;49.862;8.758;2022-12-18T06:33:12;2.27;;;2.17;;
7156;SDS011;3620;49.862;8.758;2022-12-18T06:35:38;2.70;;;2.60;;
7156;SDS011;3620;49.862;8.758;2022-12-18T06:38:05;2.80;;;2.70;;
7156;SDS011;3620;49.862;8.758;2022-12-18T06:40:32;2.70;;;2.60;;
7156;SDS011;3620;49.862;8.758;2022-12-18T06:42:58;3.20;;;3.10;;
7156;SDS011;3620;49.862;8.758;2022-12-18T06:45:25;2.40;;;2.30;;
7156;SDS011;3620;49.862;8.758;2022-12-18T06:47:51;2.63;;;2.53;;
7156;SDS011;3620;49.862;8.758;2022-12-18T06:50:19;2.93;;;2.83;;
7156;SDS011;3620;49.862;8.758;2022-12-18T06:52:46;2.70;;;2.60;;
7156;SDS011;3620;49.862;8.758;2022-12-18T06:55:12;2.70;;;2.60;;
7156;SDS011;3620;49.862;8.758;2022-12-18T06:57:39;3.60;;;3.40;;
7156;SDS011;3620;49.862;8.758;2022-12-18T07:00:06;2.43;;;2.33;;
7156;SDS011;3620;49.862;8.758;2022-12-18T07:02:33;2.33;;;2.23;;
7156;SDS011;3620;49.862;8.758;2022-12-18T07:05:00;2.40;;;2.30;;
7156;SDS011;3620;49.862;8.758;2022-12-18T07:07:28;3.30;;;3.20;;
7156;SDS011;3620;49.862;8.758;2022-12-18T07:09:54;2.80;;;2.70;;
7156;SDS011;3620;49.862;8.758;2022-12-18T07:12:21;2.57;;;2.47;;
7156;SDS011;3620;49.862;8.758;2022-12-18T07:14:47;2.67;;;2.57;;
7156;SDS011;3620;49.862;8.758;2022-12-18T07:17:14;2.43;;;2.33;;
7156;SDS011;3620;49.862;8.758;2022-12-18T07:19:40;3.17;;;3.07;;
7156;SDS011;3620;49.862;8.758;2022-12-18T07:22:07;3.20;;;3.10;;
7156;SDS011;3620;49.862;8.758;2022-12-18T07:24:35;2.23;;;2.13;;
7156;SDS011;3620;49.862;8.758;2022-12-18T07:27:02;2.30;;;2.20;;
7156;SDS011;3620;49.862;8.758;2022-12-18T07:29:29;2.53;;;2.43;;
7156;SDS011;3620;49.862;8.758;2022-12-18T07:31:55;3.17;;;3.07;;
7156;SDS011;3620;49.862;8.758;2022-12-18T07:34:22;2.50;;;2.40;;
7156;SDS011;3620;49.862;8.758;2022-12-18T07:36:48;2.33;;;2.23;;
7156;SDS011;3620;49.862;8.758;2022-12-18T07:39:15;2.27;;;2.17;;
7156;SDS011;3620;49.862;8.758;2022-12-18T07:41:43;2.90;;;2.80;;
7156;SDS011;3620;49.862;8.758;2022-12-18T07:44:29;2.90;;;2.80;;
7156;SDS011;3620;49.862;8.758;2022-12-18T07:46:56;2.30;;;2.20;;
7156;SDS011;3620;49.862;8.758;2022-12-18T07:49:22;2.40;;;2.30;;
7156;SDS011;3620;49.862;8.758;2022-12-18T07:51:49;3.00;;;2.90;;
7156;SDS011;3620;49.862;8.758;2022-12-18T07:54:15;2.70;;;2.60;;
7156;SDS011;3620;49.862;8.758;2022-12-18T07:56:43;2.20;;;2.10;;
7156;SDS011;3620;49.862;8.758;2022-12-18T07:59:10;2.53;;;2.43;;
7156;SDS011;3620;49.862;8.758;2022-12-18T08:01:36;2.20;;;2.10;;
7156;SDS011;3620;49.862;8.758;2022-12-18T08:04:03;2.70;;;2.60;;
7156;SDS011;3620;49.862;8.758;2022-12-18T08:06:30;2.40;;;2.30;;
7156;SDS011;3620;49.862;8.758;2022-12-18T08:08:56;3.33;;;3.23;;
7156;SDS011;3620;49.862;8.758;2022-12-18T08:11:24;2.53;;;2.43;;
7156;SDS011;3620;49.862;8.758;2022-12-18T08:13:53;2.10;;;2.00;;
7156;SDS011;3620;49.862;8.758;2022-12-18T08:16:20;2.43;;;2.33;;
7156;SDS011;3620;49.862;8.758;2022-12-18T08:18:48;2.37;;;2.27;;
7156;SDS011;3620;49.862;8.758;2022-12-18T08:21:15;2.30;;;2.20;;
7156;SDS011;3620;49.862;8.758;2022-12-18T08:23:43;3.00;;;2.90;;
7156;SDS011;3620;49.862;8.758;2022-12-18T08:26:10;2.53;;;2.43;;
7156;SDS011;3620;49.862;8.758;2022-12-18T08:28:38;2.60;;;2.50;;
7156;SDS011;3620;49.862;8.758;2022-12-18T08:31:06;2.50;;;2.40;;
7156;SDS011;3620;49.862;8.758;2022-12-18T08:33:33;3.00;;;2.90;;
7156;SDS011;3620;49.862;8.758;2022-12-18T08:36:00;2.00;;;1.90;;
7156;SDS011;3620;49.862;8.758;2022-12-18T08:38:29;2.93;;;2.83;;
7156;SDS011;3620;49.862;8.758;2022-12-18T08:40:58;2.50;;;2.40;;
7156;SDS011;3620;49.862;8.758;2022-12-18T08:43:25;2.30;;;2.20;;
7156;SDS011;3620;49.862;8.758;2022-12-18T08:46:11;2.53;;;2.43;;
7156;SDS011;3620;49.862;8.758;2022-12-18T08:48:40;2.50;;;2.40;;
7156;SDS011;3620;49.862;8.758;2022-12-18T08:51:06;2.03;;;1.93;;
7156;SDS011;3620;49.862;8.758;2022-12-18T08:53:34;2.30;;;2.20;;
7156;SDS011;3620;49.862;8.758;2022-12-18T08:56:01;3.03;;;2.93;;
7156;SDS011;3620;49.862;8.758;2022-12-18T08:58:27;2.43;;;2.33;;
7156;SDS011;3620;49.862;8.758;2022-12-18T09:00:54;2.40;;;2.30;;
7156;SDS011;3620;49.862;8.758;2022-12-18T09:03:26;2.40;;;2.30;;
7156;SDS011;3620;49.862;8.758;2022-12-18T09:05:53;2.63;;;2.53;;
7156;SDS011;3620;49.862;8.758;2022-12-18T09:08:19;2.90;;;2.80;;
7156;SDS011;3620;49.862;8.758;2022-12-18T09:10:46;2.90;;;2.80;;
7156;SDS011;3620;49.862;8.758;2022-12-18T09:13:14;2.23;;;2.13;;
7156;SDS011;3620;49.862;8.758;2022-12-18T09:15:42;2.30;;;2.20;;
7156;SDS011;3620;49.862;8.758;2022-12-18T09:18:10;2.40;;;2.30;;
7156;SDS011;3620;49.862;8.758;2022-12-18T09:20:38;2.17;;;2.07;;
7156;SDS011;3620;49.862;8.758;2022-12-18T09:23:06;2.30;;;2.20;;
7156;SDS011;3620;49.862;8.758;2022-12-18T09:25:34;2.07;;;1.97;;
7156;SDS011;3620;49.862;8.758;2022-12-18T09:28:02;2.40;;;2.30;;
7156;SDS011;3620;49.862;8.758;2022-12-18T09:30:29;2.47;;;2.37;;
7156;SDS011;3620;49.862;8.758;2022-12-18T09:32:58;2.40;;;2.30;;
7156;SDS011;3620;49.862;8.758;2022-12-18T09:35:24;2.50;;;2.40;;
7156;SDS011;3620;49.862;8.758;2022-12-18T09:37:54;2.10;;;2.00;;
7156;SDS011;3620;49.862;8.758;2022-12-18T09:40:21;2.30;;;2.20;;
7156;SDS011;3620;49.862;8.758;2022-12-18T09:42:51;2.13;;;2.03;;
7156;SDS011;3620;49.862;8.758;2022-12-18T09:45:21;2.40;;;2.30;;
7156;SDS011;3620;49.862;8.758;2022-12-18T09:47:49;2.20;;;2.10;;
7156;SDS011;3620;49.862;8.758;2022-12-18T09:50:21;2.10;;;2.00;;
7156;SDS011;3620;49.862;8.758;2022-12-18T09:52:53;2.30;;;2.20;;
7156;SDS011;3620;49.862;8.758;2022-12-18T09:55:24;2.13;;;2.03;;
7156;SDS011;3620;49.862;8.758;2022-12-18T09:57:55;2.30;;;2.20;;
7156;SDS011;3620;49.862;8.758;2022-12-18T10:00:26;2.10;;;2.00;;
7156;SDS011;3620;49.862;8.758;2022-12-18T10:02:53;2.30;;;2.20;;
7156;SDS011;3620;49.862;8.758;2022-12-18T10:05:28;2.33;;;2.23;;
7156;SDS011;3620;49.862;8.758;2022-12-18T10:08:04;2.30;;;2.20;;
7156;SDS011;3620;49.862;8.758;2022-12-18T10:10:36;2.20;;;2.10;;
7156;SDS011;3620;49.862;8.758;2022-12-18T10:13:09;2.33;;;2.23;;
7156;SDS011;3620;49.862;8.758;2022-12-18T10:15:48;2.30;;;2.20;;
7156;SDS011;3620;49.862;8.758;2022-12-18T10:18:23;2.60;;;2.50;;
7156;SDS011;3620;49.862;8.758;2022-12-18T10:21:00;2.20;;;2.10;;
7156;SDS011;3620;49.862;8.758;2022-12-18T10:23:32;2.20;;;2.10;;
7156;SDS011;3620;49.862;8.758;2022-12-18T10:26:06;2.00;;;1.90;;
7156;SDS011;3620;49.862;8.758;2022-12-18T10:28:37;2.23;;;2.13;;
7156;SDS011;3620;49.862;8.758;2022-12-18T10:31:05;2.03;;;1.93;;
7156;SDS011;3620;49.862;8.758;2022-12-18T10:33:32;2.20;;;2.10;;
7156;SDS011;3620;49.862;8.758;2022-12-18T10:36:00;2.13;;;2.03;;
7156;SDS011;3620;49.862;8.758;2022-12-18T10:38:28;2.27;;;2.17;;
7156;SDS011;3620;49.862;8.758;2022-12-18T10:40:58;2.30;;;2.20;;
7156;SDS011;3620;49.862;8.758;2022-12-18T10:43:27;2.20;;;2.10;;
7156;SDS011;3620;49.862;8.758;2022-12-18T10:46:04;2.00;;;1.90;;
7156;SDS011;3620;49.862;8.758;2022-12-18T10:48:41;2.10;;;2.00;;
7156;SDS011;3620;49.862;8.758;2022-12-18T10:51:19;2.20;;;2.10;;
7156;SDS011;3620;49.862;8.758;2022-12-18T10:53:51;2.30;;;2.20;;
7156;SDS011;3620;49.862;8.758;2022-12-18T10:56:21;2.10;;;2.00;;
7156;SDS011;3620;49.862;8.758;2022-12-18T10:58:55;2.20;;;2.10;;
7156;SDS011;3620;49.862;8.758;2022-12-18T11:01:23;2.10;;;2.00;;
7156;SDS011;3620;49.862;8.758;2022-12-18T11:03:58;2.10;;;2.00;;
7156;SDS011;3620;49.862;8.758;2022-12-18T11:06:26;2.30;;;2.20;;
7156;SDS011;3620;49.862;8.758;2022-12-18T11:08:57;2.20;;;2.10;;
7156;SDS011;3620;49.862;8.758;2022-12-18T11:11:27;2.17;;;2.07;;
7156;SDS011;3620;49.862;8.758;2022-12-18T11:13:58;2.20;;;2.10;;
7156;SDS011;3620;49.862;8.758;2022-12-18T11:16:27;2.30;;;2.20;;
7156;SDS011;3620;49.862;8.758;2022-12-18T11:19:07;2.00;;;1.90;;
7156;SDS011;3620;49.862;8.758;2022-12-18T11:21:39;2.17;;;2.07;;
7156;SDS011;3620;49.862;8.758;2022-12-18T11:24:08;2.00;;;1.90;;
7156;SDS011;3620;49.862;8.758;2022-12-18T11:26:47;2.07;;;1.97;;
7156;SDS011;3620;49.862;8.758;2022-12-18T11:29:15;2.10;;;2.00;;
7156;SDS011;3620;49.862;8.758;2022-12-18T11:31:43;2.20;;;2.10;;
7156;SDS011;3620;49.862;8.758;2022-12-18T11:34:10;1.97;;;1.87;;
7156;SDS011;3620;49.862;8.758;2022-12-18T11:36:42;2.13;;;2.03;;
7156;SDS011;3620;49.862;8.758;2022-12-18T11:39:12;2.10;;;2.00;;
7156;SDS011;3620;49.862;8.758;2022-12-18T11:41:48;2.00;;;1.90;;
7156;SDS011;3620;49.862;8.758;2022-12-18T11:44:39;2.13;;;2.03;;
7156;SDS011;3620;49.862;8.758;2022-12-18T11:47:13;2.10;;;2.00;;
7156;SDS011;3620;49.862;8.758;2022-12-18T11:49:51;2.10;;;2.00;;
7156;SDS011;3620;49.862;8.758;2022-12-18T11:52:23;2.20;;;2.10;;
7156;SDS011;3620;49.862;8.758;2022-12-18T11:54:52;1.97;;;1.87;;
7156;SDS011;3620;49.862;8.758;2022-12-18T11:57:27;2.07;;;1.97;;
7156;SDS011;3620;49.862;8.758;2022-12-18T12:00:04;2.20;;;2.10;;
7156;SDS011;3620;49.862;8.758;2022-12-18T12:02:59;2.20;;;2.10;;
7156;SDS011;3620;49.862;8.758;2022-12-18T12:05:45;2.00;;;1.90;;
7156;SDS011;3620;49.862;8.758;2022-12-18T12:08:26;2.07;;;1.97;;
7156;SDS011;3620;49.862;8.758;2022-12-18T12:10:59;2.07;;;1.97;;
7156;SDS011;3620;49.862;8.758;2022-12-18T12:13:41;2.10;;;2.00;;
7156;SDS011;3620;49.862;8.758;2022-12-18T12:16:15;2.20;;;2.10;;
7156;SDS011;3620;49.862;8.758;2022-12-18T12:18:55;2.07;;;1.97;;
7156;SDS011;3620;49.862;8.758;2022-12-18T12:21:35;2.17;;;2.07;;
7156;SDS011;3620;49.862;8.758;2022-12-18T12:24:09;2.30;;;2.20;;
7156;SDS011;3620;49.862;8.758;2022-12-18T12:26:48;2.00;;;1.90;;
7156;SDS011;3620;49.862;8.758;2022-12-18T12:29:26;1.90;;;1.80;;
7156;SDS011;3620;49.862;8.758;2022-12-18T12:32:07;2.00;;;1.90;;
7156;SDS011;3620;49.862;8.758;2022-12-18T12:34:49;1.93;;;1.83;;
7156;SDS011;3620;49.862;8.758;2022-12-18T12:37:27;2.00;;;1.90;;
7156;SDS011;3620;49.862;8.758;2022-12-18T12:40:03;1.90;;;1.80;;
7156;SDS011;3620;49.862;8.758;2022-12-18T12:42:31;2.00;;;1.90;;
7156;SDS011;3620;49.862;8.758;2022-12-18T12:45:22;2.00;;;1.90;;
7156;SDS011;3620;49.862;8.758;2022-12-18T12:47:55;2.00;;;1.90;;
7156;SDS011;3620;49.862;8.758;2022-12-18T12:50:23;2.00;;;1.90;;
7156;SDS011;3620;49.862;8.758;2022-12-18T12:52:51;2.00;;;1.90;;
7156;SDS011;3620;49.862;8.758;2022-12-18T12:55:21;1.90;;;1.80;;
7156;SDS011;3620;49.862;8.758;2022-12-18T12:57:52;2.20;;;2.10;;
7156;SDS011;3620;49.862;8.758;2022-12-18T13:00:29;1.90;;;1.80;;
7156;SDS011;3620;49.862;8.758;2022-12-18T13:03:03;2.10;;;2.00;;
7156;SDS011;3620;49.862;8.758;2022-12-18T13:05:38;1.97;;;1.87;;
7156;SDS011;3620;49.862;8.758;2022-12-18T13:08:10;2.10;;;2.00;;
7156;SDS011;3620;49.862;8.758;2022-12-18T13:10:38;2.00;;;1.90;;
7156;SDS011;3620;49.862;8.758;2022-12-18T13:13:06;2.20;;;2.10;;
7156;SDS011;3620;49.862;8.758;2022-12-18T13:15:36;1.90;;;1.80;;
7156;SDS011;3620;49.862;8.758;2022-12-18T13:18:18;2.00;;;1.90;;
7156;SDS011;3620;49.862;8.758;2022-12-18T13:20:48;2.00;;;1.90;;
7156;SDS011;3620;49.862;8.758;2022-12-18T13:23:25;2.13;;;2.03;;
7156;SDS011;3620;49.862;8.758;2022-12-18T13:25:54;2.00;;;1.90;;
7156;SDS011;3620;49.862;8.758;2022-12-18T13:28:22;2.20;;;2.10;;
7156;SDS011;3620;49.862;8.758;2022-12-18T13:31:11;2.20;;;2.10;;
7156;SDS011;3620;49.862;8.758;2022-12-18T13:33:40;1.70;;;1.60;;
7156;SDS011;3620;49.862;8.758;2022-12-18T13:36:10;1.90;;;1.80;;
7156;SDS011;3620;49.862;8.758;2022-12-18T13:38:40;1.90;;;1.80;;
7156;SDS011;3620;49.862;8.758;2022-12-18T13:41:21;1.90;;;1.80;;
7156;SDS011;3620;49.862;8.758;2022-12-18T13:43:50;2.10;;;2.00;;
7156;SDS011;3620;49.862;8.758;2022-12-18T13:46:21;2.17;;;2.07;;
7156;SDS011;3620;49.862;8.758;2022-12-18T13:48:51;1.80;;;1.70;;
7156;SDS011;3620;49.862;8.758;2022-12-18T13:51:21;2.03;;;1.93;;
7156;SDS011;3620;49.862;8.758;2022-12-18T13:53:50;2.10;;;2.00;;
7156;SDS011;3620;49.862;8.758;2022-12-18T13:56:23;1.83;;;1.73;;
7156;SDS011;3620;49.862;8.758;2022-12-18T14:01:48;1.90;;;1.80;;
7156;SDS011;3620;49.862;8.758;2022-12-18T14:04:20;2.00;;;1.90;;
7156;SDS011;3620;49.862;8.758;2022-12-18T14:06:52;2.00;;;1.90;;
7156;SDS011;3620;49.862;8.758;2022-12-18T14:09:24;2.00;;;1.90;;
7156;SDS011;3620;49.862;8.758;2022-12-18T14:11:53;1.90;;;1.80;;
7156;SDS011;3620;49.862;8.758;2022-12-18T14:14:41;2.10;;;2.00;;
7156;SDS011;3620;49.862;8.758;2022-12-18T14:17:11;1.87;;;1.77;;
7156;SDS011;3620;49.862;8.758;2022-12-18T14:19:40;2.00;;;1.90;;
7156;SDS011;3620;49.862;8.758;2022-12-18T14:22:11;2.00;;;1.90;;
7156;SDS011;3620;49.862;8.758;2022-12-18T14:24:41;1.80;;;1.70;;
7156;SDS011;3620;49.862;8.758;2022-12-18T14:27:12;1.70;;;1.60;;
7156;SDS011;3620;49.862;8.758;2022-12-18T14:29:46;2.00;;;1.90;;
7156;SDS011;3620;49.862;8.758;2022-12-18T14:32:15;2.00;;;1.90;;
7156;SDS011;3620;49.862;8.758;2022-12-18T14:34:43;2.10;;;2.00;;
7156;SDS011;3620;49.862;8.758;2022-12-18T14:37:10;1.90;;;1.80;;
7156;SDS011;3620;49.862;8.758;2022-12-18T14:39:38;1.90;;;1.80;;
7156;SDS011;3620;49.862;8.758;2022-12-18T14:42:05;1.80;;;1.70;;
7156;SDS011;3620;49.862;8.758;2022-12-18T14:44:35;2.00;;;1.90;;
7156;SDS011;3620;49.862;8.758;2022-12-18T14:47:02;2.00;;;1.90;;
7156;SDS011;3620;49.862;8.758;2022-12-18T14:49:30;1.80;;;1.70;;
7156;SDS011;3620;49.862;8.758;2022-12-18T14:52:02;1.83;;;1.73;;
7156;SDS011;3620;49.862;8.758;2022-12-18T14:54:30;1.90;;;1.80;;
7156;SDS011;3620;49.862;8.758;2022-12-18T14:57:01;2.10;;;2.00;;
7156;SDS011;3620;49.862;8.758;2022-12-18T14:59:30;2.00;;;1.90;;
7156;SDS011;3620;49.862;8.758;2022-12-18T15:01:59;2.10;;;2.00;;
7156;SDS011;3620;49.862;8.758;2022-12-18T15:04:32;2.10;;;2.00;;
7156;SDS011;3620;49.862;8.758;2022-12-18T15:07:04;2.00;;;1.90;;
7156;SDS011;3620;49.862;8.758;2022-12-18T15:09:35;1.90;;;1.80;;
7156;SDS011;3620;49.862;8.758;2022-12-18T15:12:02;1.97;;;1.87;;
7156;SDS011;3620;49.862;8.758;2022-12-18T15:14:30;1.87;;;1.77;;
7156;SDS011;3620;49.862;8.758;2022-12-18T15:17:05;2.00;;;1.90;;
7156;SDS011;3620;49.862;8.758;2022-12-18T15:19:42;1.93;;;1.83;;
7156;SDS011;3620;49.862;8.758;2022-12-18T15:22:20;1.90;;;1.80;;
7156;SDS011;3620;49.862;8.758;2022-12-18T15:24:50;2.00;;;1.90;;
7156;SDS011;3620;49.862;8.758;2022-12-18T15:27:22;2.10;;;2.00;;
7156;SDS011;3620;49.862;8.758;2022-12-18T15:30:02;2.07;;;1.97;;
7156;SDS011;3620;49.862;8.758;2022-12-18T15:32:43;2.00;;;1.90;;
7156;SDS011;3620;49.862;8.758;2022-12-18T15:35:13;2.17;;;2.07;;
7156;SDS011;3620;49.862;8.758;2022-12-18T15:37:41;2.07;;;1.97;;
7156;SDS011;3620;49.862;8.758;2022-12-18T15:40:11;2.00;;;1.90;;